Darstellungsparameter: Aktuell verwendete Einstellungen:
Skalierung der Graphiken ... ?
xyx+y,   Skalierungsfaktor:      Skalierung: Modus: x, Faktor: 1
Darstellungszeitraum ... ?
Vom - - bis: - -   Zeitraum: 28.05.2022 - 29.05.2022
Min/Max/Avg-Anzeige ... ?
Zeige MMA aktuell
Zeige MMA Monat
Zeige MMA alles
Zeige --A aktuell
Zeige --A Monat
Zeige --A alles
Keine MMA-Anzeige
MMA:
Average (ber die Originaldaten)
MMA-Basis: 23.02.2003 - 29.09.2020
Quicknavigation für Darstellung... ?
Tage:      1T, 2T, 3T, 5T -1T -2T -3T -5T +1T +2T +3T +5T
Wochen: 1W, 2W, 3W -1W -2W -3W +1W +2W +3W
Monate: 1M, 3M, 6M -1M -3M -6M +1M +3M +6M
Jahre:    1J, 3J, 5J, 10J -1J -3J -5J -10J +1J +3J +5J +10J
Nutze für die Darstellung ... ?
Originaldaten oder Mittelwerte auf ...
Stundenbasis Tagesbasis Wochenbasis
Monatsbasis Jahresbasis      Datenbasis: Original-Daten
Darstellen als:
Statistik (Auto) Statistik J:M      Darstellung:

Der gewünschte Datumsbereich war nicht gültig/verfügbar und wurde korrigiert....
Das angegebene Enddatum (28.03.2031 23:59:59) liegt in der Zukunft.
Das angegebene Startdatum (29.09.2030 00:00:00) liegt in der Zukunft.


Zur Graphik,    zurück zur Übersicht aller Sensoren.
 
Tabellarische Datenbersicht: ?
 
Sensor: Nr:Datum:Temp:Abs-Feuchte:Windchill:Wind:
Aussen-T/F 1 28-05-2022 02:00:00 8.8 C 7.05 g/m*3 8.8 C 3.2 km/h
2 28-05-2022 02:05:00 8.7 C 7.09 g/m*3 8.7 C 4.8 km/h
3 28-05-2022 02:10:00 8.6 C 7.05 g/m*3 8.6 C 3.2 km/h
4 28-05-2022 02:15:00 8.4 C 7.04 g/m*3 8.4 C 3.2 km/h
5 28-05-2022 02:20:00 8.3 C 7 g/m*3 8.3 C 0 km/h
6 28-05-2022 02:25:00 8.3 C 7 g/m*3 8.3 C 1.6 km/h
7 28-05-2022 02:30:00 8.2 C 6.95 g/m*3 8.2 C 0 km/h
8 28-05-2022 02:35:00 8.1 C 6.91 g/m*3 8.1 C 0 km/h
9 28-05-2022 02:40:00 8 C 6.94 g/m*3 8 C 1.6 km/h
10 28-05-2022 02:45:00 7.9 C 6.9 g/m*3 7.9 C 0 km/h
11 28-05-2022 02:50:00 7.8 C 6.94 g/m*3 7.8 C 4.8 km/h
12 28-05-2022 02:55:00 7.8 C 6.94 g/m*3 7.8 C 1.6 km/h
13 28-05-2022 03:00:00 7.8 C 6.94 g/m*3 7.8 C 1.6 km/h
14 28-05-2022 03:05:00 7.8 C 6.94 g/m*3 7.8 C 4.8 km/h
15 28-05-2022 03:10:00 7.8 C 7.02 g/m*3 7.8 C 4.8 km/h
16 28-05-2022 03:15:00 7.8 C 7.02 g/m*3 7.8 C 4.8 km/h
17 28-05-2022 03:20:00 7.8 C 7.02 g/m*3 6.83 C 6.4 km/h
18 28-05-2022 03:25:00 7.8 C 7.1 g/m*3 7.8 C 3.2 km/h
19 28-05-2022 03:30:00 7.8 C 7.1 g/m*3 7.8 C 4.8 km/h
20 28-05-2022 03:35:00 7.9 C 7.15 g/m*3 7.9 C 3.2 km/h
21 28-05-2022 03:40:00 7.9 C 7.15 g/m*3 7.9 C 4.8 km/h
22 28-05-2022 03:45:00 7.9 C 7.15 g/m*3 6.94 C 6.4 km/h
23 28-05-2022 03:50:00 7.9 C 7.15 g/m*3 7.9 C 4.8 km/h
24 28-05-2022 03:55:00 7.9 C 7.06 g/m*3 6.94 C 6.4 km/h
25 28-05-2022 04:00:00 8 C 7.11 g/m*3 5.75 C 12.9 km/h
Sensor: Nr:Datum:Temp:Abs-Feuchte:Windchill:Wind:
Aussen-T/F 26 28-05-2022 04:05:00 8.1 C 7.16 g/m*3 5.87 C 12.9 km/h
27 28-05-2022 04:10:00 8.1 C 7.16 g/m*3 7.17 C 6.4 km/h
28 28-05-2022 04:15:00 8.1 C 7.16 g/m*3 6.42 C 9.7 km/h
29 28-05-2022 04:20:00 8.1 C 7.16 g/m*3 8.1 C 3.2 km/h
30 28-05-2022 04:25:00 8.1 C 7.16 g/m*3 8.1 C 3.2 km/h
31 28-05-2022 04:30:00 7.9 C 6.98 g/m*3 7.9 C 3.2 km/h
32 28-05-2022 04:35:00 7.8 C 7.02 g/m*3 7.8 C 3.2 km/h
33 28-05-2022 04:40:00 7.8 C 7.02 g/m*3 6.83 C 6.4 km/h
34 28-05-2022 04:45:00 7.8 C 7.1 g/m*3 7.8 C 4.8 km/h
35 28-05-2022 04:50:00 7.8 C 7.1 g/m*3 6.83 C 6.4 km/h
36 28-05-2022 04:55:00 7.8 C 7.1 g/m*3 7.8 C 4.8 km/h
37 28-05-2022 05:00:00 7.7 C 7.05 g/m*3 7.7 C 4.8 km/h
38 28-05-2022 05:05:00 7.7 C 7.05 g/m*3 7.7 C 3.2 km/h
39 28-05-2022 05:10:00 7.6 C 7.01 g/m*3 5.82 C 9.7 km/h
40 28-05-2022 05:15:00 7.5 C 7.04 g/m*3 7.5 C 1.6 km/h
41 28-05-2022 05:20:00 7.4 C 7 g/m*3 5.93 C 8.1 km/h
42 28-05-2022 05:25:00 7.4 C 7 g/m*3 6.37 C 6.4 km/h
43 28-05-2022 05:30:00 7.4 C 7 g/m*3 5.58 C 9.7 km/h
44 28-05-2022 05:35:00 7.4 C 7.08 g/m*3 5.58 C 9.7 km/h
45 28-05-2022 05:40:00 7.4 C 7.08 g/m*3 6.37 C 6.4 km/h
46 28-05-2022 05:45:00 7.3 C 7.03 g/m*3 7.3 C 1.6 km/h
47 28-05-2022 05:50:00 7.3 C 7.03 g/m*3 7.3 C 3.2 km/h
48 28-05-2022 05:55:00 7.2 C 6.99 g/m*3 7.2 C 3.2 km/h
49 28-05-2022 06:00:00 7.2 C 6.99 g/m*3 5.69 C 8.1 km/h
50 28-05-2022 06:05:00 7.2 C 6.99 g/m*3 6.13 C 6.4 km/h
Sensor: Nr:Datum:Temp:Abs-Feuchte:Windchill:Wind:
Aussen-T/F 51 28-05-2022 06:10:00 7.3 C 7.11 g/m*3 5.81 C 8.1 km/h
52 28-05-2022 06:15:00 7.5 C 7.2 g/m*3 5.7 C 9.7 km/h
53 28-05-2022 06:20:00 7.7 C 7.22 g/m*3 6.71 C 6.4 km/h
54 28-05-2022 06:25:00 7.8 C 7.26 g/m*3 7.8 C 3.2 km/h
55 28-05-2022 06:30:00 7.8 C 7.26 g/m*3 6.4 C 8.1 km/h
56 28-05-2022 06:35:00 7.9 C 7.31 g/m*3 6.94 C 6.4 km/h
57 28-05-2022 06:40:00 8.1 C 7.41 g/m*3 7.17 C 6.4 km/h
58 28-05-2022 06:45:00 8.2 C 7.37 g/m*3 7.29 C 6.4 km/h

Legende:
   Min
   Max


Maximal/Minimal-Werte vom 23.02.2003 - 29.09.2020

Sensor Min Max Avg
Temp
(Aussen-T/F)
-16.4 °C
20-12-2009  01:30:01
40.4 °C
25-07-2019  16:20:00
11.32 °C

Die Daten stammen von einer Davis Vantage Pro 2 Wetter-Station und werden unter Linux mit der Software wview2wettercgi und aufbereitet. Alle Angaben erfolgen ohne Gewähr für ihre Vollständigkeit oder Richtigkeit.
Kontakt: Rainer Krienke krienke@uni-koblenz.de . Meine Webseiten an der Uni Koblenz oder privat.
Version: $Revision: 0.78 $